Time;durP1;ratioP1;P1;durP2;ratioP2;P2;SDS_P1;SDS_P2;PMS_P1;PMS_P2;Temp;Humidity;BMP_temperature;BMP_pressure;BME280_temperature;BME280_humidity;BME280_pressure;Samples;Min_cycle;Max_cycle;Signal;HPM_P1;HPM_P2
2023/07/30 00:00:36;;;;;;;;;3.40;3.00;;;;;17.87;80.07;99238.13;5099342;28;9483;-61
2023/07/30 00:03:04;;;;;;;;;3.00;3.00;;;;;17.85;80.20;99242.03;5099284;28;8810;-58
2023/07/30 00:05:32;;;;;;;;;3.20;3.20;;;;;17.84;80.49;99241.16;5098782;28;8840;-59
2023/07/30 00:07:59;;;;;;;;;3.20;3.00;;;;;17.87;80.07;99248.91;5098014;28;8846;-61
2023/07/30 00:10:27;;;;;;;;;3.00;1.00;;;;;17.89;80.44;99246.00;5098967;28;8840;-61
2023/07/30 00:12:55;;;;;;;;;6.00;4.00;;;;;17.91;80.20;99250.19;5097718;28;8844;-60
2023/07/30 00:15:23;;;;;;;;;3.00;3.00;;;;;17.91;80.27;99254.75;5098863;28;8836;-60
2023/07/30 00:17:51;;;;;;;;;1.00;1.00;;;;;17.89;80.08;99252.25;5098528;28;8818;-58
2023/07/30 00:20:18;;;;;;;;;4.20;3.80;;;;;17.87;80.12;99253.44;5099028;28;8826;-61
2023/07/30 00:22:47;;;;;;;;;4.00;3.00;;;;;17.84;80.34;99249.25;5098896;28;8810;-58
2023/07/30 00:25:15;;;;;;;;;3.20;3.00;;;;;17.80;80.42;99252.50;5098272;28;8952;-61
2023/07/30 00:27:42;;;;;;;;;3.00;3.00;;;;;17.76;80.09;99259.28;5097993;28;8847;-61
2023/07/30 00:30:10;;;;;;;;;4.00;3.20;;;;;17.69;80.72;99255.66;5097961;28;8966;-60
2023/07/30 00:32:43;;;;;;;;;3.00;3.00;;;;;17.61;80.60;99253.06;5098713;28;8818;-59
2023/07/30 00:35:12;;;;;;;;;3.60;2.40;;;;;17.53;80.88;99251.25;5098419;28;8941;-59
2023/07/30 00:37:40;;;;;;;;;2.60;1.00;;;;;17.47;81.20;99262.75;5097863;28;8830;-61
2023/07/30 00:40:07;;;;;;;;;0.80;0.80;;;;;17.43;81.23;99266.84;5096979;28;8799;-61
2023/07/30 00:42:35;;;;;;;;;4.00;3.00;;;;;17.39;80.95;99259.31;5097195;28;8814;-60
2023/07/30 00:45:03;;;;;;;;;2.60;1.40;;;;;17.32;81.35;99251.06;5097260;28;8818;-61
2023/07/30 00:47:30;;;;;;;;;1.00;1.00;;;;;17.28;81.00;99251.63;5097865;28;8854;-61
2023/07/30 00:49:58;;;;;;;;;2.60;2.60;;;;;17.19;80.98;99256.25;5098083;28;8968;-59
2023/07/30 00:52:26;;;;;;;;;1.00;1.00;;;;;17.14;81.28;99266.72;5097638;28;8891;-60
2023/07/30 00:54:53;;;;;;;;;2.20;1.80;;;;;17.09;81.63;99261.03;5098167;28;8854;-60
2023/07/30 00:57:23;;;;;;;;;2.20;2.20;;;;;17.06;81.68;99268.63;5097628;28;8948;-61
2023/07/30 00:59:50;;;;;;;;;3.00;3.00;;;;;17.01;81.89;99261.09;5098391;28;9511;-60
2023/07/30 01:02:18;;;;;;;;;2.20;2.20;;;;;16.99;81.42;99268.50;5098293;28;8840;-59
2023/07/30 01:04:46;;;;;;;;;3.00;3.00;;;;;16.94;81.43;99260.13;5097930;28;9460;-59
2023/07/30 01:07:13;;;;;;;;;3.00;2.60;;;;;16.92;81.47;99266.69;5097932;28;8975;-59
2023/07/30 01:09:41;;;;;;;;;3.00;3.00;;;;;16.90;81.76;99269.59;5097949;28;8845;-59
2023/07/30 01:12:09;;;;;;;;;1.40;1.40;;;;;16.87;81.40;99269.91;5098238;28;8857;-59
2023/07/30 01:14:38;;;;;;;;;1.00;1.00;;;;;16.83;81.27;99276.69;5098332;28;8934;-59
2023/07/30 01:17:06;;;;;;;;;1.40;1.00;;;;;16.81;81.18;99275.19;5098514;28;8814;-61
2023/07/30 01:19:34;;;;;;;;;4.80;3.40;;;;;16.77;81.31;99280.09;5097667;28;8822;-59
2023/07/30 01:22:02;;;;;;;;;1.00;1.00;;;;;16.74;81.52;99288.50;5098092;28;8824;-59
2023/07/30 01:24:30;;;;;;;;;3.00;1.00;;;;;16.72;81.22;99284.31;5097961;28;8862;-59
2023/07/30 01:26:57;;;;;;;;;5.60;1.00;;;;;16.69;81.82;99290.88;5098302;28;8824;-59
2023/07/30 01:29:25;;;;;;;;;2.60;2.60;;;;;16.63;81.76;99288.91;5098110;28;8827;-61
2023/07/30 01:31:52;;;;;;;;;1.00;1.00;;;;;16.59;81.70;99282.22;5097913;28;8814;-59
2023/07/30 01:34:20;;;;;;;;;1.00;1.00;;;;;16.53;82.00;99277.53;5098098;28;8834;-59
2023/07/30 01:36:48;;;;;;;;;1.00;1.00;;;;;16.50;81.59;99283.25;5097916;28;8838;-59
2023/07/30 01:39:15;;;;;;;;;1.00;1.00;;;;;16.48;81.62;99295.22;5097511;28;8814;-59
2023/07/30 01:41:43;;;;;;;;;3.00;3.00;;;;;16.46;82.41;99291.84;5097647;28;8838;-58
2023/07/30 01:44:11;;;;;;;;;3.40;1.00;;;;;16.43;82.21;99293.03;5097525;28;8956;-58
2023/07/30 01:46:39;;;;;;;;;4.00;4.00;;;;;16.40;81.81;99292.56;5096631;28;8866;-58
2023/07/30 01:49:06;;;;;;;;;3.00;3.00;;;;;16.38;81.83;99295.41;5096099;28;8817;-60
2023/07/30 01:51:34;;;;;;;;;0.80;0.80;;;;;16.38;81.95;99301.81;5097368;28;9513;-59
2023/07/30 01:54:02;;;;;;;;;3.20;2.80;;;;;16.37;81.76;99298.25;5096694;28;8810;-58
2023/07/30 01:56:30;;;;;;;;;4.00;3.00;;;;;16.35;82.05;99298.41;5097145;28;8830;-60
2023/07/30 01:58:58;;;;;;;;;3.40;3.20;;;;;16.33;81.55;99300.44;5096882;28;8841;-61
2023/07/30 02:01:25;;;;;;;;;4.00;3.20;;;;;16.32;81.78;99301.44;5097549;28;9513;-60
2023/07/30 02:03:53;;;;;;;;;3.00;3.00;;;;;16.29;81.54;99301.81;5096575;28;8802;-59
2023/07/30 02:06:21;;;;;;;;;1.80;1.80;;;;;16.28;81.80;99296.59;5097104;28;8946;-59
2023/07/30 02:08:49;;;;;;;;;2.20;2.20;;;;;16.26;81.97;99301.31;5097105;28;8818;-60
2023/07/30 02:11:17;;;;;;;;;2.60;2.60;;;;;16.22;82.19;99291.91;5098607;28;8883;-60
2023/07/30 02:13:44;;;;;;;;;4.00;3.80;;;;;16.20;82.41;99304.69;5097390;28;8830;-60
2023/07/30 02:16:12;;;;;;;;;0.20;0.20;;;;;16.17;81.77;99297.81;5097985;28;8821;-59
2023/07/30 02:18:40;;;;;;;;;2.20;2.20;;;;;16.16;82.34;99295.28;5096578;28;8832;-61
2023/07/30 02:21:07;;;;;;;;;3.60;2.60;;;;;16.14;82.48;99296.50;5093092;28;8838;-61
2023/07/30 02:23:35;;;;;;;;;1.60;0.80;;;;;16.11;82.57;99297.66;5096641;28;8837;-61
2023/07/30 02:26:03;;;;;;;;;1.00;1.00;;;;;16.09;81.95;99298.84;5095911;28;8814;-59
2023/07/30 02:28:31;;;;;;;;;1.80;1.80;;;;;16.07;82.12;99299.00;5096178;28;8842;-61
2023/07/30 02:30:58;;;;;;;;;1.00;1.00;;;;;16.03;82.25;99291.47;5096129;28;8829;-61
2023/07/30 02:33:26;;;;;;;;;2.20;1.80;;;;;16.01;82.60;99297.00;5096869;28;8860;-61
2023/07/30 02:35:54;;;;;;;;;3.00;2.60;;;;;15.99;82.23;99298.22;5096502;28;8806;-61
2023/07/30 02:38:21;;;;;;;;;1.00;1.00;;;;;15.98;82.60;99296.50;5096805;28;8830;-60
2023/07/30 02:40:49;;;;;;;;;2.60;2.60;;;;;15.95;82.59;99295.03;5096593;28;8822;-60
2023/07/30 02:43:17;;;;;;;;;1.00;1.00;;;;;15.92;82.16;99298.03;5096183;28;8814;-59
2023/07/30 02:45:45;;;;;;;;;3.40;3.40;;;;;15.89;82.39;99300.22;5096117;28;8844;-61
2023/07/30 02:48:14;;;;;;;;;0.80;0.80;;;;;15.89;82.24;99302.91;5096353;28;8931;-58
2023/07/30 02:50:42;;;;;;;;;3.60;3.40;;;;;15.87;82.86;99302.25;5096637;28;9538;-59
2023/07/30 02:53:09;;;;;;;;;3.00;1.80;;;;;15.86;82.34;99301.41;5096433;28;8845;-60
2023/07/30 02:55:37;;;;;;;;;1.00;1.00;;;;;15.85;82.59;99301.59;5096491;28;9507;-59
2023/07/30 02:58:04;;;;;;;;;3.20;1.40;;;;;15.84;81.96;99305.28;5095932;28;8844;-59
2023/07/30 03:00:32;;;;;;;;;3.00;2.60;;;;;15.82;82.15;99313.50;5096055;28;8818;-61
2023/07/30 03:03:00;;;;;;;;;4.60;3.00;;;;;15.81;82.64;99317.22;5095992;28;8944;-61
2023/07/30 03:05:27;;;;;;;;;1.80;1.80;;;;;15.81;82.38;99310.97;5096417;28;8826;-59
2023/07/30 03:07:55;;;;;;;;;2.80;2.80;;;;;15.82;82.01;99312.66;5096008;28;8818;-60
2023/07/30 03:10:22;;;;;;;;;3.00;1.00;;;;;15.85;82.38;99315.84;5096012;28;8818;-61
2023/07/30 03:12:50;;;;;;;;;3.00;3.00;;;;;15.85;82.27;99312.34;5095794;28;8806;-60
2023/07/30 03:15:18;;;;;;;;;1.00;1.00;;;;;15.86;82.14;99319.38;5095041;28;8834;-58
2023/07/30 03:17:46;;;;;;;;;3.00;1.80;;;;;15.84;82.34;99316.84;5094872;28;8826;-59
2023/07/30 03:20:13;;;;;;;;;0.00;0.00;;;;;15.82;82.01;99315.34;5096119;28;8822;-58
2023/07/30 03:22:41;;;;;;;;;1.00;0.80;;;;;15.77;82.77;99309.66;5096244;28;8810;-60
2023/07/30 03:25:08;;;;;;;;;2.60;1.80;;;;;15.73;82.34;99311.00;5096158;28;9482;-60
2023/07/30 03:27:36;;;;;;;;;1.00;1.00;;;;;15.67;81.97;99312.53;5096154;28;8954;-61
2023/07/30 03:30:04;;;;;;;;;1.40;1.00;;;;;15.61;82.50;99309.69;5096025;28;8808;-58
2023/07/30 03:32:32;;;;;;;;;1.00;1.00;;;;;15.58;82.78;99310.00;5096191;28;8819;-59
2023/07/30 03:35:00;;;;;;;;;1.00;1.00;;;;;15.53;82.62;99310.50;5096068;28;8832;-59
2023/07/30 03:37:27;;;;;;;;;1.80;1.80;;;;;15.49;82.89;99316.41;5095884;28;8842;-59
2023/07/30 03:39:55;;;;;;;;;1.00;1.00;;;;;15.44;82.83;99319.59;5095991;28;8822;-59
2023/07/30 03:42:23;;;;;;;;;1.80;1.80;;;;;15.43;83.06;99317.91;5096106;28;8821;-58
2023/07/30 03:44:50;;;;;;;;;3.00;1.00;;;;;15.45;83.01;99328.47;5096204;28;8833;-60
2023/07/30 03:47:18;;;;;;;;;1.00;1.00;;;;;15.45;83.12;99326.63;5096156;28;9499;-59
2023/07/30 03:49:45;;;;;;;;;3.00;2.60;;;;;15.47;82.18;99323.78;5095809;28;8854;-59
2023/07/30 03:52:13;;;;;;;;;1.00;1.00;;;;;15.48;82.52;99326.28;5096139;28;8834;-60
2023/07/30 03:54:41;;;;;;;;;1.00;1.00;;;;;15.49;82.65;99321.75;5096128;28;8840;-59
2023/07/30 03:57:08;;;;;;;;;1.40;1.00;;;;;15.48;82.06;99315.53;5095397;28;9578;-58
2023/07/30 03:59:36;;;;;;;;;3.00;3.00;;;;;15.50;82.53;99328.81;5095896;28;8840;-60
2023/07/30 04:02:04;;;;;;;;;3.00;3.00;;;;;15.52;82.50;99318.72;5095551;28;8814;-59
2023/07/30 04:04:31;;;;;;;;;5.00;3.60;;;;;15.52;82.44;99330.31;5095336;28;8826;-58
2023/07/30 04:06:59;;;;;;;;;2.60;1.00;;;;;15.53;82.33;99328.44;5095164;28;8814;-59
2023/07/30 04:09:27;;;;;;;;;3.40;3.00;;;;;15.52;82.56;99330.31;5095010;28;8814;-59
2023/07/30 04:11:55;;;;;;;;;3.00;2.20;;;;;15.52;82.87;99327.63;5095590;28;8822;-59
2023/07/30 04:14:22;;;;;;;;;3.00;1.80;;;;;15.53;82.18;99333.81;5095210;28;8822;-61
2023/07/30 04:16:50;;;;;;;;;3.00;3.00;;;;;15.54;82.60;99338.22;5079926;28;8822;-58
2023/07/30 04:19:19;;;;;;;;;1.80;0.60;;;;;15.55;82.23;99342.56;5094937;28;8945;-59
2023/07/30 04:21:46;;;;;;;;;1.00;1.00;;;;;15.55;81.95;99327.28;5095584;28;8814;-60
2023/07/30 04:24:14;;;;;;;;;2.20;1.00;;;;;15.57;82.30;99325.28;5095131;28;8837;-60
2023/07/30 04:26:42;;;;;;;;;3.40;3.40;;;;;15.60;81.74;99332.16;5095460;28;8834;-58
2023/07/30 04:29:10;;;;;;;;;3.60;3.00;;;;;15.62;82.05;99332.84;5098484;28;8826;-61
2023/07/30 04:31:38;;;;;;;;;3.00;3.00;;;;;15.64;81.91;99331.63;5099081;28;8806;-61
2023/07/30 04:34:06;;;;;;;;;3.00;1.00;;;;;15.66;82.01;99336.84;5098991;28;8806;-59
2023/07/30 04:36:33;;;;;;;;;0.60;0.00;;;;;15.68;82.06;99337.50;5098710;28;8849;-61
2023/07/30 04:39:01;;;;;;;;;1.00;1.00;;;;;15.72;81.59;99338.84;5098748;28;8818;-60
2023/07/30 04:41:29;;;;;;;;;4.80;3.00;;;;;15.77;81.82;99336.50;5099412;28;8832;-59
2023/07/30 04:43:56;;;;;;;;;3.60;3.00;;;;;15.82;81.12;99339.50;5098875;28;8833;-60
2023/07/30 04:46:25;;;;;;;;;3.00;3.00;;;;;15.86;81.78;99335.50;5098364;28;8845;-60
2023/07/30 04:48:53;;;;;;;;;3.20;3.20;;;;;15.90;81.18;99334.13;5097924;28;8832;-60
2023/07/30 04:51:20;;;;;;;;;1.00;1.00;;;;;15.96;81.55;99328.94;5098494;28;8829;-60
2023/07/30 04:53:48;;;;;;;;;3.80;1.80;;;;;16.02;80.91;99330.94;5098741;28;8810;-58
2023/07/30 04:56:16;;;;;;;;;1.40;1.40;;;;;16.08;80.88;99332.09;5098931;28;8822;-59
2023/07/30 04:58:43;;;;;;;;;2.20;1.00;;;;;16.17;80.89;99331.91;5098401;28;8824;-61
2023/07/30 05:01:11;;;;;;;;;2.60;2.60;;;;;16.29;80.54;99327.81;5098680;28;8830;-58
2023/07/30 05:03:39;;;;;;;;;3.00;2.20;;;;;16.40;79.67;99331.00;5098239;28;8840;-60
2023/07/30 05:06:07;;;;;;;;;5.20;4.00;;;;;16.51;79.99;99333.34;5098612;28;8853;-59
2023/07/30 05:08:34;;;;;;;;;1.00;1.00;;;;;16.64;79.58;99324.69;5098229;28;8822;-59
2023/07/30 05:11:02;;;;;;;;;1.40;1.40;;;;;16.74;79.50;99328.84;5098263;28;8838;-58
2023/07/30 05:13:30;;;;;;;;;3.00;3.00;;;;;16.81;79.13;99324.44;5098716;28;8872;-60
2023/07/30 05:15:58;;;;;;;;;1.00;1.00;;;;;16.85;79.14;99315.00;5100607;28;8799;-57
2023/07/30 05:18:26;;;;;;;;;2.20;2.20;;;;;16.90;79.15;99315.31;5098700;28;8808;-59
2023/07/30 05:20:54;;;;;;;;;4.00;3.00;;;;;16.90;79.20;99323.38;5097775;28;8798;-59
2023/07/30 05:23:22;;;;;;;;;1.00;1.00;;;;;16.87;78.95;99318.34;5098251;28;8841;-59
2023/07/30 05:25:49;;;;;;;;;1.00;0.20;;;;;16.89;78.96;99327.09;5098164;28;8821;-59
2023/07/30 05:28:17;;;;;;;;;3.00;1.40;;;;;16.93;79.05;99331.09;5098092;28;8809;-61
2023/07/30 05:30:45;;;;;;;;;3.00;2.20;;;;;16.98;78.95;99333.25;5097841;28;8826;-61
2023/07/30 05:33:12;;;;;;;;;1.00;1.00;;;;;17.07;78.70;99335.72;5097835;28;8822;-60
2023/07/30 05:35:40;;;;;;;;;3.00;2.60;;;;;17.16;78.58;99337.31;5097972;28;8855;-59
2023/07/30 05:38:08;;;;;;;;;2.60;1.80;;;;;17.23;78.39;99334.78;5097973;28;8815;-60
2023/07/30 05:40:35;;;;;;;;;3.00;2.20;;;;;17.26;78.27;99340.66;5098059;28;8808;-61
2023/07/30 05:43:06;;;;;;;;;1.00;1.00;;;;;17.27;78.18;99336.94;5098062;28;8808;-60
2023/07/30 05:45:34;;;;;;;;;1.00;1.00;;;;;17.29;78.14;99340.28;5097597;28;8831;-59
2023/07/30 05:48:02;;;;;;;;;3.00;3.00;;;;;17.31;78.15;99332.03;5097196;28;8911;-59
2023/07/30 05:50:29;;;;;;;;;1.00;1.00;;;;;17.32;77.67;99341.78;5097109;28;8818;-61
2023/07/30 05:52:57;;;;;;;;;3.00;1.80;;;;;17.35;77.75;99331.47;5096939;28;8861;-60
2023/07/30 05:55:25;;;;;;;;;3.00;3.00;;;;;17.40;77.66;99339.06;5097280;28;9496;-59
2023/07/30 05:57:53;;;;;;;;;3.20;3.00;;;;;17.39;77.94;99340.91;5096958;28;9515;-61
2023/07/30 06:00:21;;;;;;;;;1.00;1.00;;;;;17.34;78.19;99335.19;5096827;28;8928;-60
2023/07/30 06:02:48;;;;;;;;;3.00;3.00;;;;;17.32;78.30;99347.97;5097031;28;8813;-60
2023/07/30 06:05:16;;;;;;;;;2.60;1.00;;;;;17.30;77.42;99346.50;5096646;28;8903;-60
2023/07/30 06:07:44;;;;;;;;;1.00;1.00;;;;;17.26;78.50;99335.25;5096744;28;9504;-61
2023/07/30 06:10:11;;;;;;;;;2.20;2.20;;;;;17.23;78.21;99335.59;5096475;28;8846;-60
2023/07/30 06:12:39;;;;;;;;;3.00;3.00;;;;;17.23;78.14;99334.78;5096890;28;8813;-61
2023/07/30 06:15:06;;;;;;;;;3.00;1.00;;;;;17.23;78.05;99337.47;5097135;28;8810;-61
2023/07/30 06:17:34;;;;;;;;;1.80;0.80;;;;;17.19;78.17;99345.06;5096768;28;8810;-59
2023/07/30 06:20:02;;;;;;;;;2.60;1.00;;;;;17.16;78.27;99345.41;5096651;28;8931;-61
2023/07/30 06:22:30;;;;;;;;;1.00;1.00;;;;;17.11;78.36;99358.56;5095847;28;8802;-61
2023/07/30 06:24:58;;;;;;;;;3.40;3.40;;;;;17.00;78.77;99350.06;5096879;28;9476;-60
2023/07/30 06:27:26;;;;;;;;;3.00;3.00;;;;;16.93;79.13;99355.28;5096029;28;8826;-58
2023/07/30 06:29:53;;;;;;;;;2.60;2.60;;;;;16.94;78.68;99350.75;5095906;28;8818;-61
2023/07/30 06:32:21;;;;;;;;;1.00;0.60;;;;;16.95;78.89;99357.81;5096226;28;8834;-61
2023/07/30 06:34:49;;;;;;;;;1.00;1.00;;;;;16.95;78.99;99364.00;5096753;28;8937;-61
2023/07/30 06:37:16;;;;;;;;;0.00;0.00;;;;;16.94;78.58;99353.47;5096135;28;8844;-60
2023/07/30 06:39:44;;;;;;;;;3.00;1.40;;;;;16.93;79.05;99352.59;5096295;28;8833;-58
2023/07/30 06:42:12;;;;;;;;;3.00;1.40;;;;;16.89;79.11;99361.22;5096011;28;8915;-58
2023/07/30 06:44:40;;;;;;;;;3.40;3.40;;;;;16.82;78.85;99363.78;5096278;28;8810;-59
2023/07/30 06:47:07;;;;;;;;;1.00;1.00;;;;;16.77;79.38;99376.91;5096362;28;9473;-60
2023/07/30 06:49:36;;;;;;;;;2.60;2.60;;;;;16.77;79.17;99376.91;5096298;28;8818;-60
2023/07/30 06:52:04;;;;;;;;;3.00;3.00;;;;;16.80;79.24;99376.53;5095262;28;8822;-58
2023/07/30 06:54:32;;;;;;;;;3.00;3.00;;;;;16.86;79.17;99378.53;5095972;28;8830;-59
2023/07/30 06:56:59;;;;;;;;;5.60;3.40;;;;;16.92;78.81;99385.91;5095768;28;8818;-59
2023/07/30 06:59:27;;;;;;;;;2.60;2.20;;;;;16.96;79.01;99381.88;5095880;28;8916;-58
2023/07/30 07:01:55;;;;;;;;;1.00;1.00;;;;;17.00;78.70;99399.31;5095917;28;9507;-59
2023/07/30 07:04:22;;;;;;;;;3.00;2.20;;;;;17.03;78.57;99393.59;5095908;28;8822;-58
2023/07/30 07:06:50;;;;;;;;;2.20;1.00;;;;;17.08;78.45;99391.19;5095426;28;8826;-59
2023/07/30 07:09:18;;;;;;;;;1.00;1.00;;;;;17.12;78.31;99389.00;5095016;28;8810;-58
2023/07/30 07:11:47;;;;;;;;;4.00;3.00;;;;;17.12;78.36;99387.16;5094763;28;8826;-58
2023/07/30 07:14:15;;;;;;;;;3.00;3.00;;;;;17.13;78.60;99394.19;5095708;28;8844;-59
2023/07/30 07:16:44;;;;;;;;;1.00;1.00;;;;;17.13;78.74;99382.59;5095200;28;9453;-59
2023/07/30 07:19:12;;;;;;;;;1.80;1.80;;;;;17.10;78.57;99383.78;5094987;28;8900;-57
2023/07/30 07:21:39;;;;;;;;;3.00;1.40;;;;;17.11;78.15;99382.78;5095473;28;8829;-58
2023/07/30 07:24:08;;;;;;;;;3.00;1.00;;;;;17.09;78.35;99402.81;5095504;28;9532;-59
2023/07/30 07:26:36;;;;;;;;;2.20;2.20;;;;;17.04;78.94;99400.66;5095692;28;8960;-58
2023/07/30 07:29:03;;;;;;;;;4.80;3.40;;;;;17.01;78.38;99406.38;5095804;28;9515;-58
2023/07/30 07:31:31;;;;;;;;;3.00;2.60;;;;;17.01;78.48;99400.16;5095897;28;8826;-59
2023/07/30 07:34:02;;;;;;;;;2.20;2.20;;;;;17.01;78.65;99410.91;5095834;28;8835;-58
2023/07/30 07:36:30;;;;;;;;;4.00;4.00;;;;;17.03;78.80;99408.88;5096075;28;8831;-58
2023/07/30 07:38:58;;;;;;;;;3.00;3.00;;;;;17.05;78.57;99410.41;5095681;28;8823;-59
2023/07/30 07:41:25;;;;;;;;;3.00;3.00;;;;;17.06;78.54;99414.75;5095323;28;8819;-59
2023/07/30 07:43:54;;;;;;;;;6.00;4.00;;;;;17.05;78.60;99423.84;5095245;28;8812;-60
2023/07/30 07:46:21;;;;;;;;;6.00;4.80;;;;;17.02;78.57;99413.41;5094386;28;8825;-58
2023/07/30 07:48:49;;;;;;;;;3.00;3.00;;;;;16.99;78.98;99424.53;5094712;28;8830;-60
2023/07/30 07:51:17;;;;;;;;;1.80;1.80;;;;;16.96;78.96;99421.38;5094473;28;8814;-59
2023/07/30 07:53:44;;;;;;;;;5.60;4.00;;;;;16.93;79.10;99424.41;5095062;28;8949;-58
2023/07/30 07:56:14;;;;;;;;;3.20;3.00;;;;;16.91;79.17;99423.72;5094504;28;8826;-58
2023/07/30 07:58:42;;;;;;;;;5.20;4.00;;;;;16.88;78.90;99429.47;5095362;28;8853;-57
2023/07/30 08:01:10;;;;;;;;;3.00;3.00;;;;;16.86;79.27;99424.25;5095123;28;8828;-59
2023/07/30 08:03:38;;;;;;;;;5.60;5.60;;;;;16.89;78.67;99426.63;5099140;28;8802;-58
2023/07/30 08:06:06;;;;;;;;;3.00;3.00;;;;;16.88;78.90;99419.56;5099129;28;8826;-59
2023/07/30 08:08:33;;;;;;;;;3.00;3.00;;;;;16.91;78.72;99421.03;5099128;28;8838;-60
2023/07/30 08:11:01;;;;;;;;;6.00;3.00;;;;;16.91;78.48;99424.56;5098415;28;8838;-59
2023/07/30 08:13:29;;;;;;;;;4.00;4.00;;;;;16.93;78.62;99425.22;5099755;28;8848;-60
2023/07/30 08:15:57;;;;;;;;;5.20;4.40;;;;;16.92;78.97;99412.81;5097980;28;8810;-58
2023/07/30 08:18:25;;;;;;;;;7.80;6.40;;;;;16.95;78.64;99422.38;5098356;28;8826;-58
2023/07/30 08:20:53;;;;;;;;;5.60;4.80;;;;;16.97;78.95;99421.19;5098910;28;8838;-60
2023/07/30 08:23:20;;;;;;;;;7.00;6.00;;;;;17.01;78.31;99422.50;5099141;28;8824;-60
2023/07/30 08:25:49;;;;;;;;;5.20;4.40;;;;;17.08;78.38;99419.97;5098425;28;8810;-60
2023/07/30 08:28:17;;;;;;;;;3.40;3.20;;;;;17.15;78.32;99426.31;5097603;28;8853;-58
2023/07/30 08:30:45;;;;;;;;;6.40;6.00;;;;;17.22;77.68;99430.81;5096110;28;8818;-58
2023/07/30 08:33:13;;;;;;;;;5.60;5.60;;;;;17.27;77.99;99427.59;5096468;28;8866;-60
2023/07/30 08:35:41;;;;;;;;;7.80;6.40;;;;;17.28;77.54;99419.34;5096694;28;9479;-59
2023/07/30 08:38:08;;;;;;;;;0.00;0.00;;;;;17.30;77.69;99421.88;5097293;28;8842;-60
2023/07/30 08:40:36;;;;;;;;;5.60;4.80;;;;;17.33;77.51;99421.50;5097379;28;8844;-58
2023/07/30 08:43:05;;;;;;;;;3.60;3.60;;;;;17.37;78.02;99422.84;5097538;28;8822;-58
2023/07/30 08:45:32;;;;;;;;;6.40;6.00;;;;;17.40;77.48;99427.88;5098466;28;8814;-61
2023/07/30 08:48:00;;;;;;;;;3.00;1.80;;;;;17.46;77.36;99422.63;5098529;28;9527;-60
2023/07/30 08:50:28;;;;;;;;;4.00;4.00;;;;;17.47;77.58;99418.91;5098663;28;8829;-60
2023/07/30 08:52:56;;;;;;;;;6.00;5.60;;;;;17.48;77.49;99417.88;5098736;28;9468;-60
2023/07/30 08:55:23;;;;;;;;;8.60;6.40;;;;;17.48;77.63;99422.44;5098222;28;8825;-59
2023/07/30 08:57:52;;;;;;;;;6.40;4.80;;;;;17.50;77.71;99421.25;5098157;28;9479;-60
2023/07/30 09:00:19;;;;;;;;;6.00;6.00;;;;;17.53;77.24;99422.78;5096923;28;8822;-60
2023/07/30 09:02:48;;;;;;;;;4.00;3.80;;;;;17.51;77.24;99425.63;5098703;28;8955;-60
2023/07/30 09:05:15;;;;;;;;;5.60;5.20;;;;;17.52;77.09;99421.06;5098623;28;8826;-61
2023/07/30 09:07:43;;;;;;;;;4.00;4.00;;;;;17.52;77.48;99431.84;5098133;28;8922;-61
2023/07/30 09:10:12;;;;;;;;;6.00;5.60;;;;;17.59;77.10;99441.72;5097931;28;8953;-60
2023/07/30 09:12:39;;;;;;;;;4.00;4.00;;;;;17.74;76.55;99441.78;5098188;28;9496;-61
2023/07/30 09:15:07;;;;;;;;;6.00;4.00;;;;;17.91;76.71;99449.56;5096678;28;8814;-59
2023/07/30 09:17:35;;;;;;;;;4.80;4.00;;;;;18.08;75.96;99439.50;5096417;28;8826;-59
2023/07/30 09:20:03;;;;;;;;;6.00;6.00;;;;;18.27;75.53;99447.91;5096725;28;8830;-60
2023/07/30 09:22:36;;;;;;;;;5.60;4.00;;;;;18.46;75.01;99455.53;5097037;28;8832;-59
2023/07/30 09:25:04;;;;;;;;;4.00;3.40;;;;;18.59;74.76;99438.69;5097232;28;8867;-59
2023/07/30 09:27:32;;;;;;;;;6.20;4.80;;;;;18.70;74.63;99443.63;5097741;28;8832;-61
2023/07/30 09:29:59;;;;;;;;;4.60;3.80;;;;;18.77;74.15;99441.84;5097889;28;8937;-59
2023/07/30 09:32:27;;;;;;;;;1.80;1.80;;;;;18.85;73.87;99444.47;5097951;28;8951;-61
2023/07/30 09:34:55;;;;;;;;;3.20;3.00;;;;;18.89;74.41;99446.59;5097325;28;8818;-59
2023/07/30 09:37:23;;;;;;;;;4.80;4.00;;;;;18.88;74.09;99450.31;5097990;28;8864;-60
2023/07/30 09:39:51;;;;;;;;;4.00;4.00;;;;;18.86;74.04;99446.97;5097537;28;8818;-61
2023/07/30 09:42:19;;;;;;;;;15.00;8.60;;;;;18.97;74.06;99442.97;5097582;28;8826;-61
2023/07/30 09:44:47;;;;;;;;;3.80;3.80;;;;;19.13;73.51;99440.88;5097309;28;8940;-58
2023/07/30 09:47:16;;;;;;;;;3.00;3.00;;;;;19.31;72.99;99446.78;5097066;28;8830;-58
2023/07/30 09:49:44;;;;;;;;;5.20;5.20;;;;;19.43;72.96;99460.63;5096733;28;8814;-59
2023/07/30 09:52:11;;;;;;;;;3.80;3.60;;;;;19.59;72.83;99453.13;5097071;28;8900;-61
2023/07/30 09:54:39;;;;;;;;;3.40;3.40;;;;;19.76;72.00;99443.75;5096993;28;8806;-61
2023/07/30 09:57:08;;;;;;;;;3.20;3.00;;;;;19.89;71.69;99449.28;5096990;28;8885;-59
2023/07/30 09:59:37;;;;;;;;;1.00;1.00;;;;;19.98;71.80;99447.28;5096843;28;8860;-61
2023/07/30 10:02:05;;;;;;;;;4.40;4.00;;;;;20.07;71.43;99460.50;5097003;28;8824;-61
2023/07/30 10:04:33;;;;;;;;;0.00;0.00;;;;;20.10;71.43;99465.53;5096726;28;8795;-61
2023/07/30 10:07:02;;;;;;;;;3.60;3.20;;;;;20.10;71.70;99460.13;5096840;28;8927;-60
2023/07/30 10:09:30;;;;;;;;;4.20;4.20;;;;;20.11;71.81;99460.97;5096954;28;8834;-62
2023/07/30 10:11:58;;;;;;;;;2.80;2.80;;;;;20.03;71.70;99461.88;5097408;28;8849;-61
2023/07/30 10:14:26;;;;;;;;;4.00;4.00;;;;;19.92;71.79;99462.41;5096770;28;8836;-60
2023/07/30 10:16:54;;;;;;;;;4.00;4.00;;;;;19.74;72.47;99459.34;5096901;28;8850;-61
2023/07/30 10:19:22;;;;;;;;;4.00;4.00;;;;;19.60;73.03;99462.91;5096032;28;8822;-61
2023/07/30 10:21:49;;;;;;;;;4.60;3.20;;;;;19.49;73.06;99458.00;5095678;28;8814;-58
2023/07/30 10:24:17;;;;;;;;;4.00;3.80;;;;;19.44;73.17;99465.00;5096456;28;8810;-59
2023/07/30 10:26:45;;;;;;;;;1.00;1.00;;;;;19.48;73.22;99467.13;5095489;28;8830;-60
2023/07/30 10:29:13;;;;;;;;;4.60;4.60;;;;;20.33;71.38;99463.44;5095757;28;8842;-60
2023/07/30 10:31:41;;;;;;;;;4.20;4.20;;;;;21.32;69.47;99453.91;5096671;28;8822;-59
2023/07/30 10:34:09;;;;;;;;;4.20;3.20;;;;;22.20;67.80;99442.88;5096232;28;8814;-59
2023/07/30 10:36:37;;;;;;;;;2.00;2.00;;;;;22.92;66.47;99444.50;5096168;28;8830;-60
2023/07/30 10:39:05;;;;;;;;;2.40;2.00;;;;;23.50;65.38;99440.75;5096543;28;8842;-61
2023/07/30 10:41:33;;;;;;;;;2.00;2.00;;;;;23.73;64.63;99437.50;5096159;28;8861;-59
2023/07/30 10:44:06;;;;;;;;;7.00;4.00;;;;;23.91;64.05;99434.91;5096676;28;9502;-61
2023/07/30 10:46:36;;;;;;;;;2.40;2.40;;;;;24.03;62.86;99430.41;5095755;28;8941;-60
2023/07/30 10:49:06;;;;;;;;;1.00;1.00;;;;;24.22;63.43;99433.03;5095891;28;8903;-60
2023/07/30 10:51:33;;;;;;;;;2.00;1.20;;;;;24.62;62.23;99431.66;5095792;28;8837;-59
2023/07/30 10:54:02;;;;;;;;;2.00;2.00;;;;;24.69;62.12;99428.84;5096291;28;8837;-61
2023/07/30 10:56:29;;;;;;;;;4.00;3.80;;;;;24.51;62.93;99426.88;5096420;28;8857;-60
2023/07/30 10:58:57;;;;;;;;;2.20;1.40;;;;;24.26;63.85;99433.41;5095366;28;8819;-59
2023/07/30 11:01:25;;;;;;;;;5.00;4.00;;;;;24.35;63.61;99440.25;5095260;28;8837;-60
2023/07/30 11:03:53;;;;;;;;;2.00;2.00;;;;;24.57;62.79;99436.09;5095744;28;8798;-62
2023/07/30 11:06:21;;;;;;;;;1.00;0.80;;;;;24.96;61.91;99430.25;5095060;28;8833;-60
2023/07/30 11:08:49;;;;;;;;;1.00;1.00;;;;;25.12;61.00;99438.66;5094091;28;8850;-60
2023/07/30 11:11:17;;;;;;;;;1.60;1.60;;;;;25.43;60.22;99437.69;5093701;28;8814;-61
2023/07/30 11:13:46;;;;;;;;;2.00;2.00;;;;;25.73;59.78;99423.81;5094197;28;8965;-59
2023/07/30 11:16:15;;;;;;;;;2.80;2.80;;;;;25.67;59.69;99434.84;5093547;28;8887;-61
2023/07/30 11:18:43;;;;;;;;;2.00;1.20;;;;;25.10;60.75;99429.03;5093646;28;8964;-60
2023/07/30 11:21:14;;;;;;;;;1.00;1.00;;;;;24.54;62.06;99431.91;5093589;28;8824;-59
2023/07/30 11:23:42;;;;;;;;;2.00;2.00;;;;;24.77;61.57;99436.72;5093577;28;8816;-60
2023/07/30 11:26:10;;;;;;;;;1.60;1.60;;;;;25.03;61.08;99437.28;5093990;28;8815;-59
2023/07/30 11:28:38;;;;;;;;;1.00;1.00;;;;;25.08;60.03;99436.59;5094585;28;8839;-59
2023/07/30 11:31:06;;;;;;;;;2.40;2.20;;;;;25.57;59.02;99429.13;5095236;28;8842;-60
2023/07/30 11:33:34;;;;;;;;;2.00;2.00;;;;;26.26;56.94;99441.09;5095415;28;8826;-60
2023/07/30 11:36:02;;;;;;;;;1.60;1.60;;;;;26.14;57.77;99429.34;5095206;28;8826;-60
2023/07/30 11:38:30;;;;;;;;;1.00;1.00;;;;;25.58;58.58;99428.84;5099915;28;8849;-61
2023/07/30 11:40:58;;;;;;;;;2.00;2.00;;;;;25.87;57.62;99433.50;5100159;28;8830;-61
2023/07/30 11:43:26;;;;;;;;;1.80;1.00;;;;;26.01;57.38;99437.72;5099368;28;8834;-59